Time;durP1;ratioP1;P1;durP2;ratioP2;P2;SDS_P1;SDS_P2;PMS_P1;PMS_P2;Temp;Humidity;BMP_temperature;BMP_pressure;BME280_temperature;BME280_humidity;BME280_pressure;Samples;Min_cycle;Max_cycle;Signal;HPM_P1;HPM_P2
2021/05/18 00:00:58;;;;;;;14.65;11.02;;;10.00;95.40;;;;;;4984602;28;20038;-71
2021/05/18 00:03:24;;;;;;;15.57;11.32;;;10.00;95.40;;;;;;5005385;28;20045;-71
2021/05/18 00:05:56;;;;;;;15.57;11.13;;;9.90;95.50;;;;;;5003351;28;20123;-71
2021/05/18 00:08:23;;;;;;;16.77;11.30;;;10.00;95.50;;;;;;5005418;28;20117;-70
2021/05/18 00:13:40;;;;;;;19.60;12.13;;;9.80;95.60;;;;;;5004404;28;20042;-77
2021/05/18 00:16:07;;;;;;;18.58;12.10;;;9.70;95.70;;;;;;5003856;28;20069;-77
2021/05/18 00:18:35;;;;;;;19.02;11.88;;;9.60;95.70;;;;;;5001789;28;20049;-78
2021/05/18 00:21:03;;;;;;;18.70;12.63;;;9.60;95.70;;;;;;4991168;28;20527;-78
2021/05/18 00:23:29;;;;;;;20.50;11.68;;;9.50;95.80;;;;;;5004247;28;20046;-78
2021/05/18 00:25:55;;;;;;;17.15;12.38;;;9.50;95.90;;;;;;4984075;28;20405;-77
2021/05/18 00:28:22;;;;;;;18.70;12.88;;;9.50;95.90;;;;;;5006434;28;20050;-77
2021/05/18 00:30:47;;;;;;;17.75;12.23;;;9.40;96.00;;;;;;4974231;28;20037;-77
2021/05/18 00:33:17;;;;;;;17.97;12.40;;;9.40;96.00;;;;;;4987739;28;20080;-77
2021/05/18 00:35:44;;;;;;;20.20;13.70;;;9.30;96.00;;;;;;4989265;28;20041;-77
2021/05/18 00:38:11;;;;;;;20.53;13.07;;;9.30;96.10;;;;;;4988401;28;20041;-77
2021/05/18 00:40:37;;;;;;;19.27;12.73;;;9.30;96.20;;;;;;4976484;28;20036;-77
2021/05/18 00:43:05;;;;;;;17.17;12.63;;;9.30;96.20;;;;;;4988512;28;20794;-78
2021/05/18 00:45:36;;;;;;;18.15;12.93;;;9.30;96.20;;;;;;5007625;28;20045;-77
2021/05/18 00:48:04;;;;;;;21.42;13.85;;;9.30;96.20;;;;;;4986374;28;20104;-77
2021/05/18 00:50:31;;;;;;;21.52;13.70;;;9.30;96.30;;;;;;5004751;28;20061;-77
2021/05/18 00:53:03;;;;;;;22.05;14.35;;;9.30;96.30;;;;;;5008553;28;20046;-77
2021/05/18 01:00:43;;;;;;;19.98;13.18;;;9.30;96.40;;;;;;5006276;28;20037;-77
2021/05/18 01:03:09;;;;;;;21.53;14.33;;;9.30;96.40;;;;;;5008061;28;20112;-77
2021/05/18 01:08:19;;;;;;;24.07;14.47;;;9.30;96.30;;;;;;4994492;28;20041;-78
2021/05/18 01:10:47;;;;;;;22.00;14.93;;;9.30;96.40;;;;;;4974064;28;20057;-78
2021/05/18 01:13:13;;;;;;;21.70;14.60;;;9.30;96.40;;;;;;5007732;28;20061;-77
2021/05/18 01:15:39;;;;;;;21.83;13.82;;;9.30;96.40;;;;;;4992715;28;20624;-76
2021/05/18 01:18:06;;;;;;;25.47;14.13;;;9.20;96.50;;;;;;5002060;28;20112;-77
2021/05/18 01:20:40;;;;;;;25.20;14.37;;;9.30;96.50;;;;;;5010602;28;20037;-77
2021/05/18 01:23:09;;;;;;;20.77;14.80;;;9.20;96.50;;;;;;5006464;28;20436;-77
2021/05/18 01:25:35;;;;;;;17.87;13.40;;;9.30;96.60;;;;;;5005149;28;20559;-77
2021/05/18 01:28:01;;;;;;;20.03;13.50;;;9.20;96.50;;;;;;4987178;28;20041;-77
2021/05/18 01:30:27;;;;;;;24.87;13.93;;;9.20;96.50;;;;;;5023681;28;20034;-77
2021/05/18 01:32:53;;;;;;;20.90;13.20;;;9.10;96.50;;;;;;4988445;28;20053;-77
2021/05/18 01:35:20;;;;;;;19.50;13.13;;;9.10;96.60;;;;;;4989952;28;20493;-77
2021/05/18 01:37:46;;;;;;;22.63;14.33;;;9.10;96.60;;;;;;5007620;28;20096;-77
2021/05/18 01:45:17;;;;;;;18.43;13.33;;;9.00;96.60;;;;;;5006076;28;20038;-77
2021/05/18 01:47:55;;;;;;;16.67;11.60;;;8.90;96.60;;;;;;5007178;28;20046;-70
2021/05/18 01:50:30;;;;;;;23.63;14.27;;;8.90;96.60;;;;;;4988156;28;20757;-70
2021/05/18 01:52:57;;;;;;;18.30;13.10;;;8.90;96.60;;;;;;5010173;28;20044;-70
2021/05/18 01:57:58;;;;;;;16.20;11.30;;;8.80;96.60;;;;;;4974303;28;20045;-70
2021/05/18 02:00:27;;;;;;;15.48;11.65;;;8.70;96.70;;;;;;5003625;28;20800;-70
2021/05/18 02:02:54;;;;;;;17.43;12.23;;;8.70;96.70;;;;;;5004083;28;20037;-70
2021/05/18 02:05:22;;;;;;;13.30;10.30;;;8.70;96.70;;;;;;5015733;28;20184;-70
2021/05/18 02:07:50;;;;;;;15.97;11.50;;;8.60;96.60;;;;;;5008180;28;20049;-70
2021/05/18 02:10:18;;;;;;;17.60;11.87;;;8.60;96.60;;;;;;4988199;28;20101;-70
2021/05/18 02:12:45;;;;;;;17.58;11.73;;;8.60;96.60;;;;;;4988140;28;20144;-70
2021/05/18 02:17:55;;;;;;;14.33;10.80;;;8.50;96.50;;;;;;5013388;28;20133;-70
2021/05/18 02:20:33;;;;;;;14.63;10.53;;;8.40;96.50;;;;;;4986079;28;20583;-70
2021/05/18 02:25:44;;;;;;;17.73;12.07;;;8.40;96.60;;;;;;5009444;28;20048;-70
2021/05/18 02:28:10;;;;;;;18.20;11.63;;;8.30;96.70;;;;;;5014605;28;20041;-78
2021/05/18 02:30:38;;;;;;;16.87;11.33;;;8.30;96.70;;;;;;4991573;28;20725;-78
2021/05/18 02:33:04;;;;;;;16.03;11.07;;;8.20;96.60;;;;;;5005003;28;20447;-77
2021/05/18 02:35:32;;;;;;;17.35;11.73;;;8.20;96.60;;;;;;4990635;28;20135;-77
2021/05/18 02:37:59;;;;;;;18.55;11.43;;;8.20;96.60;;;;;;5010628;28;20029;-77
2021/05/18 02:40:28;;;;;;;14.45;10.88;;;8.10;96.70;;;;;;5003831;28;20453;-78
2021/05/18 02:42:54;;;;;;;17.30;11.13;;;8.10;96.60;;;;;;4977878;28;20576;-78
2021/05/18 02:45:42;;;;;;;16.53;11.10;;;8.10;96.40;;;;;;4986378;28;20039;-78
2021/05/18 02:50:52;;;;;;;17.47;12.17;;;8.00;96.30;;;;;;4996202;28;20515;-71
2021/05/18 02:53:18;;;;;;;21.93;13.40;;;8.00;96.50;;;;;;4996506;28;20113;-71
2021/05/18 02:56:10;;;;;;;27.97;15.70;;;7.90;96.50;;;;;;4990996;28;20062;-72
2021/05/18 02:58:35;;;;;;;19.20;11.80;;;7.90;96.50;;;;;;4992310;28;20149;-71
2021/05/18 03:01:01;;;;;;;27.63;13.60;;;7.90;96.60;;;;;;5003699;28;20042;-72
2021/05/18 03:03:31;;;;;;;26.53;14.47;;;7.80;96.70;;;;;;5023019;28;20034;-71
2021/05/18 03:05:56;;;;;;;25.83;14.30;;;7.70;96.60;;;;;;5008139;28;20164;-72
2021/05/18 03:08:23;;;;;;;18.77;13.10;;;7.70;96.70;;;;;;4961478;28;20050;-72
2021/05/18 03:10:49;;;;;;;23.33;14.53;;;7.60;96.70;;;;;;5006574;28;20381;-72
2021/05/18 03:13:15;;;;;;;29.43;15.77;;;7.60;96.80;;;;;;4996649;28;20034;-72
2021/05/18 03:15:41;;;;;;;39.37;15.70;;;7.60;96.80;;;;;;5000945;28;20041;-72
2021/05/18 03:18:07;;;;;;;22.03;14.47;;;7.60;96.80;;;;;;5004257;28;20045;-72
2021/05/18 03:20:33;;;;;;;24.50;15.60;;;7.50;96.80;;;;;;5006901;28;20052;-72
2021/05/18 03:22:59;;;;;;;30.33;15.57;;;7.50;96.90;;;;;;5006346;28;20041;-72
2021/05/18 03:25:25;;;;;;;41.67;17.10;;;7.50;96.90;;;;;;4967193;28;20126;-72
2021/05/18 03:27:56;;;;;;;19.77;13.87;;;7.50;97.00;;;;;;4983060;28;20038;-72
2021/05/18 03:35:37;;;;;;;27.07;15.37;;;7.40;97.00;;;;;;4985139;28;20092;-72
2021/05/18 03:38:21;;;;;;;32.47;16.60;;;7.30;97.00;;;;;;4972194;28;20552;-72
2021/05/18 03:40:54;;;;;;;36.73;17.60;;;7.40;97.10;;;;;;5000712;28;20701;-71
2021/05/18 04:04:56;;;;;;;30.60;16.93;;;7.40;97.30;;;;;;5001728;28;20133;-79
2021/05/18 04:10:14;;;;;;;28.33;15.73;;;7.40;97.60;;;;;;5009393;28;20046;-79
2021/05/18 04:18:02;;;;;;;26.80;16.10;;;7.40;97.30;;;;;;5016949;28;20038;-79
2021/05/18 05:00:55;;;;;;;27.67;17.53;;;8.30;97.60;;;;;;5008464;28;20137;-80
2021/05/18 05:06:21;;;;;;;25.67;17.13;;;8.50;97.70;;;;;;5002096;28;20480;-80
2021/05/18 05:16:26;;;;;;;24.20;17.00;;;8.80;97.60;;;;;;4990646;28;20057;-80
2021/05/18 05:18:54;;;;;;;36.40;19.07;;;8.80;97.60;;;;;;4991204;28;20117;-80
2021/05/18 05:21:26;;;;;;;32.27;18.83;;;8.90;98.00;;;;;;4988648;28;20089;-80
2021/05/18 05:23:54;;;;;;;23.15;15.43;;;9.00;97.70;;;;;;5005740;28;20046;-80
2021/05/18 05:26:20;;;;;;;28.65;18.00;;;9.00;97.80;;;;;;5003837;28;20544;-81
2021/05/18 05:28:46;;;;;;;23.90;15.87;;;9.20;97.80;;;;;;4984616;28;20052;-81
2021/05/18 05:31:11;;;;;;;25.90;16.88;;;9.20;97.70;;;;;;4984180;28;20044;-80
2021/05/18 05:33:37;;;;;;;25.27;18.00;;;9.30;97.60;;;;;;4969547;28;20049;-79
2021/05/18 05:36:04;;;;;;;22.70;14.63;;;9.40;97.50;;;;;;4986306;28;20045;-81
2021/05/18 05:38:31;;;;;;;22.03;16.10;;;9.40;97.50;;;;;;5002558;28;20122;-80
2021/05/18 05:40:58;;;;;;;24.67;17.67;;;9.50;97.50;;;;;;4989008;28;20355;-79
2021/05/18 05:43:23;;;;;;;25.42;17.75;;;9.60;97.40;;;;;;5003937;28;20378;-80
2021/05/18 05:45:50;;;;;;;24.80;16.50;;;9.60;97.40;;;;;;4972210;28;20054;-80
2021/05/18 05:48:18;;;;;;;23.15;16.77;;;9.60;97.30;;;;;;4987224;28;20052;-80
2021/05/18 05:50:45;;;;;;;23.33;16.00;;;9.70;97.30;;;;;;4982861;28;20049;-81
2021/05/18 05:53:11;;;;;;;22.60;17.20;;;9.70;97.20;;;;;;4986242;28;20065;-80
2021/05/18 05:55:37;;;;;;;19.83;15.05;;;9.80;97.20;;;;;;5012151;28;20033;-80
2021/05/18 05:58:03;;;;;;;20.77;15.65;;;9.80;97.10;;;;;;5019018;28;20584;-80
2021/05/18 06:00:32;;;;;;;18.88;14.70;;;9.80;97.00;;;;;;4997192;28;20038;-80
2021/05/18 06:02:58;;;;;;;21.25;15.95;;;9.80;97.00;;;;;;4982699;28;20053;-80
2021/05/18 06:05:24;;;;;;;20.33;15.82;;;9.80;97.00;;;;;;5006438;28;20093;-80
2021/05/18 06:07:50;;;;;;;19.80;14.75;;;9.80;97.00;;;;;;4969183;28;20073;-80
2021/05/18 06:10:27;;;;;;;20.63;14.55;;;9.80;96.90;;;;;;4992985;28;20456;-80
2021/05/18 06:37:38;;;;;;;19.38;14.82;;;10.40;96.50;;;;;;4990856;28;20112;-80
2021/05/18 06:48:20;;;;;;;21.65;16.27;;;10.60;96.00;;;;;;5020589;28;20112;-80
2021/05/18 06:50:46;;;;;;;22.30;16.30;;;10.60;96.10;;;;;;5023369;28;20040;-80
2021/05/18 06:53:12;;;;;;;19.27;16.52;;;10.70;96.00;;;;;;4996072;28;20042;-80
2021/05/18 06:55:39;;;;;;;19.40;15.32;;;10.70;95.80;;;;;;5015834;28;20044;-80
2021/05/18 06:58:10;;;;;;;20.00;14.52;;;10.80;95.40;;;;;;5011796;28;20143;-79
2021/05/18 07:00:42;;;;;;;18.52;14.52;;;10.80;95.40;;;;;;5019783;28;20064;-80
2021/05/18 07:03:11;;;;;;;18.70;15.48;;;10.80;95.30;;;;;;5023401;28;20049;-80
2021/05/18 07:05:47;;;;;;;22.10;15.90;;;10.90;95.30;;;;;;5022307;28;20443;-80
2021/05/18 07:10:42;;;;;;;21.92;15.30;;;11.00;95.40;;;;;;5012714;28;20037;-79
2021/05/18 07:13:09;;;;;;;19.73;14.38;;;11.10;95.20;;;;;;5022632;28;20043;-79
2021/05/18 07:15:35;;;;;;;19.67;15.20;;;11.20;95.10;;;;;;5014122;28;20129;-80
2021/05/18 07:18:01;;;;;;;20.67;14.93;;;11.30;95.10;;;;;;5023194;28;20128;-79
2021/05/18 07:20:31;;;;;;;18.92;14.48;;;11.40;95.00;;;;;;5016977;28;20092;-80
2021/05/18 07:22:59;;;;;;;;;;;11.50;94.80;;;;;;5026022;28;20408;-80
2021/05/18 07:25:28;;;;;;;22.05;14.43;;;11.50;94.70;;;;;;5009454;28;19928;-71
2021/05/18 07:27:58;;;;;;;18.42;13.90;;;11.60;94.60;;;;;;5022486;28;20041;-72
2021/05/18 07:30:24;;;;;;;19.05;15.20;;;11.80;94.70;;;;;;5020271;28;20087;-72
2021/05/18 07:32:50;;;;;;;15.27;12.02;;;11.90;94.60;;;;;;5026964;28;20033;-79
2021/05/18 07:35:16;;;;;;;18.30;13.75;;;11.90;94.30;;;;;;5024221;28;20053;-79
2021/05/18 07:37:42;;;;;;;13.45;11.93;;;12.00;94.10;;;;;;5014813;28;20118;-80
2021/05/18 07:40:09;;;;;;;13.95;11.95;;;12.00;93.90;;;;;;5012311;28;20120;-80
2021/05/18 07:42:36;;;;;;;15.00;13.00;;;12.00;92.60;;;;;;5028777;28;20042;-79
2021/05/18 07:45:02;;;;;;;15.75;11.80;;;12.00;92.80;;;;;;5028015;28;20068;-81
2021/05/18 07:47:49;;;;;;;16.48;13.02;;;12.00;92.80;;;;;;5003514;28;20095;-80
2021/05/18 07:50:20;;;;;;;15.68;12.10;;;12.10;93.10;;;;;;5003772;28;20172;-81
2021/05/18 08:01:17;;;;;;;12.43;10.68;;;12.40;92.80;;;;;;5035476;28;20110;-79
2021/05/18 08:06:28;;;;;;;13.73;10.50;;;12.50;92.00;;;;;;5014567;28;20034;-81
2021/05/18 08:08:54;;;;;;;12.45;9.73;;;12.60;91.80;;;;;;5009960;28;20137;-81
2021/05/18 08:11:19;;;;;;;12.88;9.82;;;12.60;91.40;;;;;;4998790;28;20353;-78
2021/05/18 08:13:47;;;;;;;10.23;8.02;;;12.70;91.50;;;;;;5028979;28;20044;-78
2021/05/18 09:48:02;;;;;;;6.50;5.50;;;14.30;84.70;;;;;;5023830;28;20111;-79
2021/05/18 10:25:40;;;;;;;5.32;3.70;;;12.10;90.60;;;;;;4895729;29;20495;-71
2021/05/18 10:35:41;;;;;;;7.57;6.78;;;13.40;91.70;;;;;;5003936;28;20401;-71
2021/05/18 10:38:11;;;;;;;9.55;7.00;;;13.90;89.70;;;;;;4999468;28;20770;-72
2021/05/18 10:40:41;;;;;;;10.77;8.07;;;14.20;87.70;;;;;;5013079;28;20235;-71
2021/05/18 10:43:28;;;;;;;8.05;7.25;;;14.30;89.00;;;;;;4999360;28;20068;-71
2021/05/18 10:46:02;;;;;;;9.70;8.10;;;14.30;88.20;;;;;;4990280;28;20053;-72
2021/05/18 10:48:37;;;;;;;10.15;7.32;;;14.40;88.40;;;;;;4980008;28;20493;-72
2021/05/18 10:51:30;;;;;;;9.13;7.57;;;14.40;88.10;;;;;;4994532;28;20046;-72
2021/05/18 10:54:16;;;;;;;9.23;7.63;;;14.40;87.20;;;;;;4977143;28;20492;-72
2021/05/18 10:57:01;;;;;;;7.75;6.43;;;14.30;86.90;;;;;;5009115;28;20041;-72
2021/05/18 10:59:42;;;;;;;9.05;5.88;;;14.20;85.90;;;;;;4997393;28;20504;-72
2021/05/18 11:02:09;;;;;;;7.95;5.38;;;14.00;86.40;;;;;;4979612;28;20643;-72
2021/05/18 11:04:41;;;;;;;5.38;4.05;;;13.80;87.30;;;;;;5001185;28;20042;-72
2021/05/18 11:07:11;;;;;;;7.15;5.00;;;13.70;86.80;;;;;;5007879;28;20048;-71
2021/05/18 11:09:38;;;;;;;8.60;6.10;;;13.50;87.50;;;;;;5005538;28;20057;-72
2021/05/18 11:12:13;;;;;;;7.68;5.13;;;13.30;88.30;;;;;;4985625;28;20038;-72
2021/05/18 11:14:43;;;;;;;6.18;4.20;;;13.20;89.00;;;;;;4999947;28;20100;-71
2021/05/18 11:17:36;;;;;;;5.75;3.92;;;13.20;89.70;;;;;;4982032;28;20453;-71
2021/05/18 11:21:15;;;;;;;5.53;4.00;;;13.20;89.30;;;;;;4967639;28;20120;-72
2021/05/18 11:23:27;;;;;;;3.95;3.10;;;13.20;89.20;;;;;;4997849;28;20050;-71
2021/05/18 11:26:06;;;;;;;4.38;3.13;;;13.20;87.00;;;;;;5006928;28;20037;-72
2021/05/18 11:28:45;;;;;;;4.60;3.80;;;13.30;86.60;;;;;;5005578;28;20120;-70
2021/05/18 11:31:25;;;;;;;5.32;3.97;;;13.40;86.80;;;;;;5000919;28;20045;-71
2021/05/18 11:33:53;;;;;;;8.93;4.80;;;13.40;86.70;;;;;;5013589;28;20048;-71
2021/05/18 11:36:34;;;;;;;6.70;5.07;;;13.60;87.30;;;;;;5003841;28;20559;-71
2021/05/18 11:39:07;;;;;;;7.43;6.50;;;13.70;86.80;;;;;;5010697;28;20049;-71
2021/05/18 11:41:36;;;;;;;7.47;6.13;;;13.80;86.90;;;;;;4996428;28;20049;-72
2021/05/18 11:44:03;;;;;;;7.53;6.65;;;13.90;87.60;;;;;;4999929;28;20570;-72
2021/05/18 11:46:31;;;;;;;5.53;4.53;;;14.00;86.30;;;;;;4986778;28;20194;-71
2021/05/18 11:49:07;;;;;;;4.78;3.42;;;14.30;86.00;;;;;;4982497;28;20046;-71
2021/05/18 11:51:53;;;;;;;5.75;4.45;;;14.80;85.10;;;;;;5024076;28;20573;-71
2021/05/18 11:54:22;;;;;;;7.95;5.70;;;15.30;81.30;;;;;;5008163;28;20044;-72
2021/05/18 11:56:48;;;;;;;6.97;6.20;;;15.60;82.50;;;;;;5011652;28;20136;-77
2021/05/18 11:59:17;;;;;;;7.03;5.63;;;15.80;81.30;;;;;;5013210;28;20068;-80
2021/05/18 12:01:51;;;;;;;6.05;3.83;;;15.60;77.10;;;;;;5016941;28;20037;-82
2021/05/18 12:04:19;;;;;;;5.57;4.15;;;15.30;72.10;;;;;;5005491;28;20409;-80
2021/05/18 12:07:01;;;;;;;4.43;3.35;;;14.80;73.10;;;;;;4996373;28;20046;-79
2021/05/18 12:09:29;;;;;;;7.35;3.85;;;14.30;74.00;;;;;;5001387;28;20034;-78
2021/05/18 12:12:11;;;;;;;6.60;4.03;;;13.90;77.00;;;;;;4986831;28;20045;-77
2021/05/18 12:14:45;;;;;;;5.43;4.45;;;13.50;79.20;;;;;;5006063;28;20038;-78
2021/05/18 12:17:11;;;;;;;6.57;4.80;;;13.30;80.30;;;;;;4993852;28;20038;-77
2021/05/18 12:19:38;;;;;;;5.78;4.50;;;13.00;81.10;;;;;;5006893;28;20066;-77
2021/05/18 12:22:07;;;;;;;6.18;5.07;;;12.90;81.50;;;;;;5003638;28;20108;-81
2021/05/18 12:24:43;;;;;;;8.18;5.28;;;12.70;83.50;;;;;;5002975;28;20097;-80
2021/05/18 12:27:12;;;;;;;7.97;5.28;;;12.60;85.90;;;;;;5014038;28;20037;-81
2021/05/18 12:29:43;;;;;;;18.63;6.93;;;12.50;86.70;;;;;;4983168;28;20637;-79
2021/05/18 12:32:16;;;;;;;8.57;6.85;;;12.40;87.60;;;;;;5015665;28;20465;-80
2021/05/18 12:34:55;;;;;;;10.50;7.75;;;12.40;88.30;;;;;;4990295;28;20064;-81
2021/05/18 12:37:37;;;;;;;9.23;6.55;;;12.30;90.40;;;;;;5011575;28;20439;-81
2021/05/18 12:40:14;;;;;;;6.80;5.75;;;12.20;90.30;;;;;;5003326;28;20041;-80
2021/05/18 12:42:41;;;;;;;9.18;6.25;;;12.20;90.40;;;;;;5004048;28;20489;-80
2021/05/18 12:45:20;;;;;;;8.18;5.28;;;12.10;90.60;;;;;;4993694;28;20054;-80
2021/05/18 12:47:52;;;;;;;7.10;5.75;;;12.10;90.90;;;;;;5005737;28;20500;-79
2021/05/18 12:50:19;;;;;;;6.30;4.47;;;12.00;91.10;;;;;;5008996;28;20465;-79
2021/05/18 12:52:51;;;;;;;7.35;5.95;;;12.10;91.10;;;;;;4986491;28;20049;-80
2021/05/18 12:55:25;;;;;;;7.95;5.80;;;12.30;91.10;;;;;;5014682;28;20041;-79
2021/05/18 12:57:56;;;;;;;7.28;5.40;;;12.40;91.30;;;;;;5017880;28;20041;-73
2021/05/18 13:00:28;;;;;;;9.27;6.30;;;12.50;91.20;;;;;;4977317;28;20034;-74
2021/05/18 13:02:54;;;;;;;8.40;6.20;;;12.80;91.30;;;;;;5013396;28;20038;-73
2021/05/18 13:05:30;;;;;;;6.57;5.20;;;13.20;91.20;;;;;;4991523;28;20049;-73
2021/05/18 13:08:22;;;;;;;6.25;5.30;;;13.60;90.30;;;;;;5003048;28;20049;-73
2021/05/18 13:13:59;;;;;;;6.63;5.55;;;14.10;86.70;;;;;;5009705;28;20493;-79
2021/05/18 13:16:35;;;;;;;6.03;4.55;;;14.30;81.30;;;;;;5010910;28;20034;-80
2021/05/18 13:19:05;;;;;;;7.55;5.72;;;14.40;83.00;;;;;;4996165;28;20461;-79
2021/05/18 13:21:34;;;;;;;6.18;5.50;;;14.40;82.40;;;;;;5001347;28;20497;-80
2021/05/18 13:26:31;;;;;;;7.57;6.60;;;14.30;83.80;;;;;;5005808;28;20042;-73
2021/05/18 13:29:09;;;;;;;8.52;7.10;;;14.40;84.50;;;;;;5002496;28;20084;-72
2021/05/18 13:31:38;;;;;;;7.55;6.70;;;14.40;85.90;;;;;;4985436;28;20121;-73
2021/05/18 13:34:04;;;;;;;7.88;6.00;;;14.50;86.50;;;;;;4989463;28;20034;-73
2021/05/18 13:36:35;;;;;;;7.60;6.53;;;14.70;85.70;;;;;;4989176;28;20044;-73
2021/05/18 13:39:07;;;;;;;10.65;8.43;;;14.60;84.50;;;;;;5006077;28;20125;-73
2021/05/18 13:41:34;;;;;;;9.48;8.30;;;14.60;84.60;;;;;;5002989;28;20505;-73
2021/05/18 13:44:01;;;;;;;38.72;30.95;;;14.50;83.10;;;;;;5022287;28;20030;-73
2021/05/18 13:46:30;;;;;;;44.45;35.25;;;14.60;84.40;;;;;;5015112;28;21028;-73
2021/05/18 13:48:56;;;;;;;25.48;22.73;;;15.10;85.80;;;;;;4995498;28;20043;-73
2021/05/18 13:51:22;;;;;;;7.80;6.60;;;15.60;84.90;;;;;;5017758;28;20046;-72
2021/05/18 13:53:48;;;;;;;8.05;6.85;;;16.00;80.10;;;;;;4985434;28;20038;-72
2021/05/18 13:56:14;;;;;;;7.60;6.40;;;16.50;79.80;;;;;;5023321;28;20386;-72
2021/05/18 13:58:40;;;;;;;7.20;6.30;;;17.00;78.90;;;;;;4997181;28;20050;-72
2021/05/18 14:01:08;;;;;;;7.20;6.30;;;17.40;79.40;;;;;;5001263;28;20159;-72
2021/05/18 14:03:34;;;;;;;7.15;5.80;;;17.90;79.00;;;;;;4983106;28;20046;-72
2021/05/18 14:06:00;;;;;;;7.97;6.45;;;18.30;75.60;;;;;;5027303;28;20120;-73
2021/05/18 14:08:40;;;;;;;6.82;6.13;;;18.40;75.30;;;;;;4982914;28;20072;-71
2021/05/18 14:11:08;;;;;;;8.00;6.10;;;18.10;72.80;;;;;;4987776;28;20050;-72
2021/05/18 14:13:37;;;;;;;7.88;6.95;;;17.70;71.90;;;;;;5006175;28;20041;-72
2021/05/18 14:16:04;;;;;;;8.73;6.32;;;17.50;73.10;;;;;;4977917;28;20047;-72
2021/05/18 14:18:30;;;;;;;7.20;6.20;;;17.50;73.80;;;;;;4999087;28;20563;-71
2021/05/18 14:20:56;;;;;;;7.53;6.72;;;17.60;71.90;;;;;;5000469;28;20116;-71
2021/05/18 14:23:24;;;;;;;6.68;5.97;;;17.80;72.00;;;;;;4979593;28;20045;-72
2021/05/18 14:25:54;;;;;;;6.00;5.22;;;17.90;70.80;;;;;;5011809;28;20092;-72
2021/05/18 14:28:21;;;;;;;6.15;5.55;;;17.70;67.70;;;;;;4996996;28;20042;-72
2021/05/18 14:30:48;;;;;;;6.07;5.40;;;17.40;71.80;;;;;;5014685;28;20041;-71
2021/05/18 14:33:14;;;;;;;7.70;5.72;;;17.40;73.10;;;;;;4992327;28;20407;-72
2021/05/18 14:35:40;;;;;;;6.40;4.00;;;17.20;72.70;;;;;;5007655;28;20454;-72
2021/05/18 14:54:50;;;;;;;8.70;6.57;;;15.40;75.20;;;;;;5003192;28;20441;-72
2021/05/18 14:57:16;;;;;;;8.48;6.78;;;15.20;77.00;;;;;;4983925;28;20121;-71
2021/05/18 14:59:42;;;;;;;7.38;6.53;;;15.10;78.20;;;;;;5010260;28;20500;-72
2021/05/18 15:02:12;;;;;;;36.40;28.63;;;15.00;79.90;;;;;;4996521;28;20804;-71
2021/05/18 15:04:39;;;;;;;34.50;27.60;;;15.10;78.50;;;;;;4997706;28;20168;-71
2021/05/18 15:07:08;;;;;;;8.45;7.05;;;15.00;78.50;;;;;;4972686;28;20520;-71
2021/05/18 15:09:36;;;;;;;8.18;6.07;;;14.90;79.50;;;;;;5017904;28;20046;-78
2021/05/18 15:12:03;;;;;;;7.85;6.85;;;14.90;77.80;;;;;;5001213;28;20430;-81
2021/05/18 15:14:28;;;;;;;7.10;6.30;;;14.70;78.20;;;;;;4989514;28;20397;-78
2021/05/18 15:16:54;;;;;;;6.90;5.93;;;14.60;79.30;;;;;;4989828;28;20060;-78
2021/05/18 15:19:23;;;;;;;7.45;5.93;;;14.40;80.50;;;;;;5017074;28;20038;-80
2021/05/18 15:21:48;;;;;;;9.27;7.22;;;14.20;81.20;;;;;;5000040;28;20604;-82
2021/05/18 15:24:14;;;;;;;14.10;6.80;;;14.00;82.20;;;;;;4995052;28;20057;-83
2021/05/18 15:26:40;;;;;;;10.07;7.50;;;13.70;83.20;;;;;;4990003;28;20421;-82
2021/05/18 15:29:06;;;;;;;9.20;7.88;;;13.50;84.90;;;;;;4964135;28;20038;-81
2021/05/18 15:31:33;;;;;;;9.10;7.68;;;13.40;86.30;;;;;;4983983;28;20180;-80
2021/05/18 15:34:00;;;;;;;9.68;8.38;;;13.40;86.30;;;;;;4984761;28;20456;-80
2021/05/18 15:36:26;;;;;;;8.73;7.18;;;13.30;86.10;;;;;;5000485;28;20147;-80
2021/05/18 15:38:54;;;;;;;12.63;8.52;;;13.30;86.50;;;;;;5001259;28;20038;-80
2021/05/18 15:41:20;;;;;;;9.05;8.15;;;13.20;87.60;;;;;;5001670;28;20038;-80
2021/05/18 15:43:46;;;;;;;9.88;8.60;;;13.10;88.20;;;;;;5000348;28;20587;-80
2021/05/18 15:46:13;;;;;;;11.65;9.35;;;13.10;89.20;;;;;;5014999;28;20106;-73
2021/05/18 15:48:40;;;;;;;14.15;10.20;;;13.10;90.10;;;;;;5022223;28;20222;-74
2021/05/18 15:51:06;;;;;;;13.18;9.68;;;13.10;90.20;;;;;;5017434;28;20037;-74
2021/05/18 15:53:32;;;;;;;12.52;9.40;;;13.00;90.60;;;;;;5009713;28;20042;-78
2021/05/18 15:55:58;;;;;;;10.10;9.00;;;12.80;90.50;;;;;;5025041;28;20041;-78
2021/05/18 15:58:26;;;;;;;12.73;10.07;;;12.70;90.50;;;;;;5012108;28;20064;-79
2021/05/18 16:00:52;;;;;;;13.30;10.50;;;12.60;90.60;;;;;;5012401;28;20041;-79
2021/05/18 16:03:18;;;;;;;11.13;9.68;;;12.50;90.90;;;;;;5021012;28;20979;-79
2021/05/18 16:05:45;;;;;;;11.85;9.38;;;12.50;91.10;;;;;;5024228;28;20052;-80
2021/05/18 16:11:04;;;;;;;12.55;9.02;;;12.50;91.20;;;;;;4988987;28;20118;-80
2021/05/18 16:13:31;;;;;;;13.27;9.93;;;12.50;91.30;;;;;;5023451;28;20487;-80
2021/05/18 16:15:59;;;;;;;11.25;9.07;;;12.50;91.20;;;;;;5028105;28;20499;-79
2021/05/18 16:18:25;;;;;;;11.60;9.60;;;12.40;91.50;;;;;;5012193;28;20049;-79
2021/05/18 16:20:52;;;;;;;10.90;9.80;;;12.40;91.70;;;;;;5017947;28;20049;-80
2021/05/18 16:23:18;;;;;;;13.55;9.73;;;12.30;91.90;;;;;;5028886;28;20068;-81
2021/05/18 16:25:46;;;;;;;13.18;10.60;;;12.30;92.20;;;;;;5025409;28;20029;-80
2021/05/18 16:28:12;;;;;;;12.18;10.27;;;12.30;92.20;;;;;;5015734;28;20041;-80
2021/05/18 16:30:38;;;;;;;14.13;10.55;;;12.30;92.40;;;;;;5020463;28;20139;-79
2021/05/18 16:33:06;;;;;;;13.05;10.35;;;12.20;92.40;;;;;;5016955;28;20179;-77
2021/05/18 16:35:32;;;;;;;15.43;9.98;;;12.10;92.50;;;;;;5020995;28;20116;-78
2021/05/18 16:37:58;;;;;;;14.15;11.20;;;12.10;92.60;;;;;;5023798;28;20052;-79
2021/05/18 16:40:25;;;;;;;14.32;11.50;;;12.10;92.60;;;;;;5003216;28;20472;-78
2021/05/18 16:42:51;;;;;;;16.00;11.65;;;12.10;92.90;;;;;;5025033;28;20046;-74
2021/05/18 16:45:17;;;;;;;14.65;12.00;;;12.00;93.20;;;;;;4990555;28;20400;-75
2021/05/18 16:47:43;;;;;;;13.85;12.35;;;12.00;93.80;;;;;;5025788;28;20040;-74
2021/05/18 16:50:09;;;;;;;16.52;12.85;;;12.00;93.90;;;;;;5006914;28;20026;-74
2021/05/18 16:52:36;;;;;;;21.80;16.95;;;12.10;93.80;;;;;;5021207;28;20049;-73
2021/05/18 16:55:08;;;;;;;19.50;15.55;;;12.30;94.30;;;;;;5019751;28;20152;-73
2021/05/18 16:57:35;;;;;;;16.92;13.30;;;12.40;94.30;;;;;;4990468;28;20046;-73
2021/05/18 17:00:02;;;;;;;20.25;13.98;;;12.60;94.20;;;;;;5023151;28;20049;-74
2021/05/18 17:02:28;;;;;;;15.63;11.85;;;12.70;94.10;;;;;;4987950;28;20045;-75
2021/05/18 17:04:54;;;;;;;12.93;11.00;;;12.70;94.00;;;;;;5007878;28;20050;-75
2021/05/18 17:07:20;;;;;;;12.95;11.48;;;12.80;93.70;;;;;;5006248;28;20540;-74
2021/05/18 17:09:46;;;;;;;13.15;11.38;;;12.90;93.50;;;;;;5008261;28;20045;-74
2021/05/18 17:12:18;;;;;;;13.55;10.80;;;13.00;93.70;;;;;;5019318;28;20037;-75
2021/05/18 17:14:47;;;;;;;14.00;10.98;;;13.20;93.50;;;;;;5010702;28;20045;-74
2021/05/18 17:17:14;;;;;;;12.48;11.18;;;13.30;93.00;;;;;;5004148;28;20044;-74
2021/05/18 17:19:44;;;;;;;12.10;9.90;;;13.20;92.70;;;;;;5015089;28;20512;-74
2021/05/18 17:22:12;;;;;;;11.90;10.70;;;13.20;92.70;;;;;;4982765;28;20640;-80
2021/05/18 17:24:38;;;;;;;12.52;10.38;;;13.10;92.60;;;;;;5012283;28;20060;-74
2021/05/18 17:27:05;;;;;;;11.73;10.48;;;13.00;92.60;;;;;;5001112;28;20037;-74
2021/05/18 17:29:31;;;;;;;14.60;12.90;;;12.90;92.70;;;;;;5001777;28;20478;-74
2021/05/18 17:32:10;;;;;;;13.55;10.77;;;12.90;93.00;;;;;;5015361;28;20503;-74
2021/05/18 17:34:38;;;;;;;12.70;10.25;;;12.90;93.20;;;;;;4982798;28;20034;-79
2021/05/18 17:37:04;;;;;;;12.73;10.80;;;12.90;93.20;;;;;;5003635;28;20099;-74
2021/05/18 17:39:30;;;;;;;12.88;10.23;;;12.80;93.20;;;;;;5002545;28;20045;-74
2021/05/18 17:41:56;;;;;;;14.70;12.70;;;12.70;93.30;;;;;;4998892;28;20501;-74
2021/05/18 17:44:27;;;;;;;16.15;12.93;;;12.70;93.50;;;;;;4999243;28;20048;-74
2021/05/18 17:46:54;;;;;;;13.48;11.65;;;12.70;93.60;;;;;;4997796;28;20042;-74
2021/05/18 17:49:21;;;;;;;14.48;12.05;;;12.70;93.60;;;;;;4994994;28;20042;-74
2021/05/18 17:51:50;;;;;;;13.52;11.18;;;12.70;93.70;;;;;;5007576;28;20046;-74
2021/05/18 17:54:16;;;;;;;13.93;11.68;;;12.70;93.70;;;;;;4975201;28;20124;-74
2021/05/18 17:56:43;;;;;;;13.55;11.30;;;12.60;93.70;;;;;;4981062;28;20149;-73
2021/05/18 17:59:09;;;;;;;12.98;11.38;;;12.50;93.80;;;;;;4992941;28;20073;-73
2021/05/18 18:01:35;;;;;;;14.75;11.57;;;12.50;93.90;;;;;;4994542;28;20064;-74
2021/05/18 18:04:02;;;;;;;24.20;19.60;;;12.40;93.90;;;;;;4991540;28;20496;-73
2021/05/18 18:06:28;;;;;;;25.90;14.27;;;12.40;94.10;;;;;;4979127;28;20077;-73